Time;durP1;ratioP1;P1;durP2;ratioP2;P2;SDS_P1;SDS_P2;PMS_P1;PMS_P2;Temp;Humidity;BMP_temperature;BMP_pressure;BME280_temperature;BME280_humidity;BME280_pressure;Samples;Min_cycle;Max_cycle;Signal;HPM_P1;HPM_P2
2021/05/26 00:02:08;;;;;;;6.78;2.30;;;;;;;5.44;59.39;95292.44;5052557;28;20109;-84
2021/05/26 00:04:33;;;;;;;3.60;2.30;;;;;;;5.42;58.99;95304.16;5052734;28;20078;-84
2021/05/26 00:06:59;;;;;;;7.20;2.25;;;;;;;4.92;61.56;95290.50;5032832;28;20128;-84
2021/05/26 00:09:24;;;;;;;6.53;2.22;;;;;;;5.41;60.03;95286.66;5035940;28;20081;-84
2021/05/26 00:11:50;;;;;;;2.70;1.90;;;;;;;5.27;60.80;95280.13;5035616;28;20547;-84
2021/05/26 00:14:15;;;;;;;6.47;2.42;;;;;;;4.80;61.31;95292.53;5052160;28;20143;-84
2021/05/26 00:16:41;;;;;;;7.57;2.25;;;;;;;5.20;60.55;95286.00;5039191;28;20593;-84
2021/05/26 00:19:07;;;;;;;5.75;2.20;;;;;;;4.54;62.13;95293.25;5032283;28;20608;-84
2021/05/26 00:21:33;;;;;;;4.10;1.95;;;;;;;5.42;61.55;95275.09;5051802;28;20606;-84
2021/05/26 00:23:58;;;;;;;3.97;2.20;;;;;;;5.32;59.48;95272.56;5052737;28;20165;-84
2021/05/26 00:26:24;;;;;;;3.55;2.15;;;;;;;5.67;59.61;95281.38;5051626;28;20111;-84
2021/05/26 00:28:51;;;;;;;6.85;2.70;;;;;;;5.40;59.65;95277.91;5050193;28;20463;-84
2021/05/26 00:31:21;;;;;;;3.28;1.83;;;;;;;5.35;60.90;95278.34;5013633;28;20106;-84
2021/05/26 00:33:46;;;;;;;5.35;2.20;;;;;;;4.96;62.17;95276.84;5050603;28;20694;-85
2021/05/26 00:36:11;;;;;;;6.82;2.53;;;;;;;5.08;60.42;95271.38;5052397;28;20093;-84
2021/05/26 00:38:37;;;;;;;6.78;2.45;;;;;;;4.84;61.55;95296.53;5051232;28;20097;-84
2021/05/26 00:41:02;;;;;;;8.50;2.42;;;;;;;4.64;62.55;95275.56;5053656;28;20072;-84
2021/05/26 00:43:28;;;;;;;4.72;2.22;;;;;;;4.96;61.24;95268.09;5052372;28;20098;-84
2021/05/26 00:45:53;;;;;;;6.25;2.20;;;;;;;5.59;59.70;95268.13;5053451;28;20143;-84
2021/05/26 00:48:18;;;;;;;5.05;2.30;;;;;;;4.92;61.04;95261.47;5054710;28;20085;-84
2021/05/26 00:50:44;;;;;;;4.93;2.20;;;;;;;4.93;60.89;95263.97;5032623;28;20105;-84
2021/05/26 00:53:12;;;;;;;4.88;2.17;;;;;;;5.70;60.31;95254.66;5067730;28;20111;-84
2021/05/26 00:55:38;;;;;;;4.45;2.40;;;;;;;5.58;59.57;95259.38;5053013;28;20121;-84
2021/05/26 00:58:04;;;;;;;5.03;2.25;;;;;;;6.03;59.38;95258.47;5036275;28;20136;-84
2021/05/26 01:00:31;;;;;;;5.43;2.50;;;;;;;4.99;60.03;95254.63;5035973;28;20497;-84
2021/05/26 01:02:56;;;;;;;7.65;2.65;;;;;;;5.06;60.19;95253.06;5052588;28;20109;-84
2021/05/26 01:05:22;;;;;;;8.20;2.63;;;;;;;4.69;61.43;95246.94;5051616;28;20295;-84
2021/05/26 01:07:48;;;;;;;5.10;2.58;;;;;;;4.62;62.44;95245.06;5051292;28;20155;-84
2021/05/26 01:10:15;;;;;;;10.23;2.88;;;;;;;5.65;59.10;95249.03;5051651;28;20333;-84
2021/05/26 01:12:40;;;;;;;7.53;3.13;;;;;;;5.79;59.42;95236.22;5069696;28;20117;-84
2021/05/26 01:15:08;;;;;;;9.30;2.85;;;;;;;5.86;59.38;95243.34;5061812;28;20610;-84
2021/05/26 01:17:36;;;;;;;11.68;2.60;;;;;;;5.72;58.99;95244.75;5051151;28;20547;-84
2021/05/26 01:20:03;;;;;;;6.80;2.70;;;;;;;4.78;61.30;95237.28;5036761;28;20081;-84
2021/05/26 01:22:29;;;;;;;3.88;2.20;;;;;;;5.29;61.33;95231.47;5052482;28;20105;-84
2021/05/26 01:24:54;;;;;;;6.15;2.80;;;;;;;5.71;59.51;95229.91;5052281;28;20450;-84
2021/05/26 01:27:20;;;;;;;9.05;3.15;;;;;;;4.49;63.55;95234.88;5051996;28;20105;-84
2021/05/26 01:29:46;;;;;;;8.48;3.30;;;;;;;5.25;61.48;95229.28;5047346;28;20171;-84
2021/05/26 01:32:11;;;;;;;6.05;2.92;;;;;;;5.17;60.52;95225.59;5049265;28;20163;-84
2021/05/26 01:34:37;;;;;;;6.70;2.85;;;;;;;5.52;60.28;95225.69;5033737;28;20098;-84
2021/05/26 01:37:02;;;;;;;7.85;3.17;;;;;;;5.58;60.54;95222.41;5052391;28;20098;-84
2021/05/26 01:39:28;;;;;;;5.00;3.13;;;;;;;5.18;60.83;95224.63;5050454;28;20211;-84
2021/05/26 01:41:55;;;;;;;7.82;2.92;;;;;;;4.74;61.53;95216.63;5047859;28;20477;-84
2021/05/26 01:44:23;;;;;;;9.65;3.17;;;;;;;5.31;60.27;95210.19;5049863;28;20085;-84
2021/05/26 01:46:49;;;;;;;8.25;2.95;;;;;;;4.88;61.48;95208.19;5050672;28;20105;-84
2021/05/26 01:49:14;;;;;;;6.80;2.75;;;;;;;4.67;62.24;95203.22;5069000;28;20171;-84
2021/05/26 01:51:40;;;;;;;8.98;3.00;;;;;;;4.43;62.79;95217.84;5069782;28;20343;-84
2021/05/26 01:54:05;;;;;;;8.63;3.00;;;;;;;4.95;60.74;95206.63;5053669;28;20118;-84
2021/05/26 01:56:31;;;;;;;6.47;2.50;;;;;;;5.22;61.04;95199.59;5054162;28;20172;-84
2021/05/26 01:58:57;;;;;;;4.43;2.40;;;;;;;5.15;60.89;95211.75;5050485;28;20449;-84
2021/05/26 02:01:23;;;;;;;5.57;2.20;;;;;;;5.34;59.69;95197.50;5056654;28;20127;-83
2021/05/26 02:03:49;;;;;;;4.32;2.20;;;;;;;5.03;61.36;95202.38;5070567;28;20164;-83
2021/05/26 02:06:15;;;;;;;3.75;2.22;;;;;;;5.66;58.49;95204.94;5052668;28;20190;-83
2021/05/26 02:08:41;;;;;;;8.82;2.30;;;;;;;5.17;59.56;95198.41;5069646;28;20098;-83
2021/05/26 02:13:50;;;;;;;4.90;2.08;;;;;;;5.65;60.07;95187.44;5053389;28;20387;-84
2021/05/26 02:16:16;;;;;;;4.80;1.80;;;;;;;5.51;60.40;95191.50;5036136;28;20559;-84
2021/05/26 02:18:41;;;;;;;5.38;2.00;;;;;;;5.82;58.51;95189.16;5052474;28;20109;-84
2021/05/26 02:21:07;;;;;;;3.60;1.80;;;;;;;5.04;62.32;95186.38;5054272;28;20116;-84
2021/05/26 02:23:32;;;;;;;1.80;1.70;;;;;;;5.69;57.28;95183.50;5053706;28;20140;-84
2021/05/26 02:25:58;;;;;;;4.13;1.77;;;;;;;6.02;58.21;95188.09;5051014;28;20105;-84
2021/05/26 02:28:23;;;;;;;3.53;1.70;;;;;;;6.45;56.19;95178.28;5052625;28;20129;-84
2021/05/26 02:30:49;;;;;;;3.53;1.83;;;;;;;5.53;56.82;95179.78;5034603;28;20117;-84
2021/05/26 02:33:14;;;;;;;7.32;1.73;;;;;;;5.10;60.09;95177.03;5052248;28;20395;-84
2021/05/26 02:35:40;;;;;;;5.35;1.58;;;;;;;4.94;59.76;95180.38;5033484;28;20101;-84
2021/05/26 02:38:05;;;;;;;5.63;1.80;;;;;;;5.56;58.14;95173.38;5051908;28;20101;-84
2021/05/26 02:40:34;;;;;;;3.60;1.60;;;;;;;5.66;58.73;95173.25;5052310;28;20088;-84
2021/05/26 02:43:04;;;;;;;3.17;1.70;;;;;;;5.07;58.93;95166.81;5048200;28;20162;-84
2021/05/26 02:45:30;;;;;;;2.35;1.58;;;;;;;4.68;59.33;95170.59;5035495;28;20162;-84
2021/05/26 02:47:56;;;;;;;2.75;1.80;;;;;;;4.84;58.73;95162.81;5048826;28;20097;-84
2021/05/26 02:50:21;;;;;;;2.05;1.50;;;;;;;4.05;60.16;95167.88;5047207;28;20529;-84
2021/05/26 02:52:47;;;;;;;4.82;1.70;;;;;;;4.55;60.06;95160.44;5057005;28;20093;-84
2021/05/26 02:55:14;;;;;;;3.20;1.52;;;;;;;5.03;58.10;95168.09;5039040;28;20109;-84
2021/05/26 02:57:39;;;;;;;4.40;1.85;;;;;;;4.93;58.32;95157.63;5029433;28;20186;-84
2021/05/26 03:00:05;;;;;;;2.25;1.42;;;;;;;5.76;56.85;95159.91;5052400;28;20180;-84
2021/05/26 03:02:31;;;;;;;1.52;1.38;;;;;;;5.34;58.32;95165.00;5067564;28;20113;-85
2021/05/26 03:04:56;;;;;;;3.53;1.50;;;;;;;6.10;55.73;95157.25;5033592;28;20327;-85
2021/05/26 03:07:22;;;;;;;4.97;1.48;;;;;;;5.14;57.63;95159.91;5055226;28;20167;-84
2021/05/26 03:09:47;;;;;;;3.03;1.20;;;;;;;5.52;55.55;95153.53;5037152;28;20105;-84
2021/05/26 03:12:12;;;;;;;3.38;1.52;;;;;;;5.50;55.43;95156.34;5054968;28;20576;-84
2021/05/26 03:14:38;;;;;;;1.92;1.30;;;;;;;5.70;55.61;95153.47;5015128;28;20098;-84
2021/05/26 03:17:03;;;;;;;3.67;1.60;;;;;;;4.31;61.70;95160.06;5033881;28;20102;-84
2021/05/26 03:19:29;;;;;;;2.60;1.70;;;;;;;4.31;59.61;95148.69;5054070;28;20456;-85
2021/05/26 03:21:54;;;;;;;2.92;1.15;;;;;;;4.82;57.86;95153.41;5054063;28;20501;-84
2021/05/26 03:24:20;;;;;;;1.67;1.15;;;;;;;4.01;59.65;95148.06;5053351;28;20078;-84
2021/05/26 03:26:45;;;;;;;1.70;1.20;;;;;;;4.43;58.99;95139.56;5069132;28;20113;-84
2021/05/26 03:29:11;;;;;;;2.35;0.88;;;;;;;5.09;60.07;95141.09;5051187;28;20105;-84
2021/05/26 03:31:36;;;;;;;1.00;0.90;;;;;;;5.65;58.18;95140.75;5053137;28;20481;-84
2021/05/26 03:34:03;;;;;;;1.92;1.27;;;;;;;5.41;56.32;95142.25;5049967;28;20127;-84
2021/05/26 03:36:28;;;;;;;2.65;1.15;;;;;;;5.71;57.87;95145.38;5051131;28;20104;-84
2021/05/26 03:38:54;;;;;;;2.40;1.15;;;;;;;6.08;56.66;95145.16;5074037;28;20105;-84
2021/05/26 03:41:19;;;;;;;1.65;1.15;;;;;;;6.27;56.73;95137.94;5050573;28;20155;-84
2021/05/26 03:43:46;;;;;;;2.55;0.90;;;;;;;6.35;56.92;95127.38;5066508;28;20102;-84
2021/05/26 03:46:11;;;;;;;1.67;1.00;;;;;;;6.30;53.86;95129.69;5047112;28;20200;-84
2021/05/26 03:48:37;;;;;;;1.00;0.90;;;;;;;6.16;56.61;95124.06;5052119;28;20077;-84
2021/05/26 03:51:03;;;;;;;1.58;1.00;;;;;;;6.35;56.19;95122.91;5015364;28;20105;-84
2021/05/26 03:53:28;;;;;;;2.92;0.98;;;;;;;6.24;54.34;95117.94;5049564;28;20097;-84
2021/05/26 03:55:54;;;;;;;2.22;0.90;;;;;;;6.36;56.60;95116.63;5049594;28;20300;-84
2021/05/26 03:58:19;;;;;;;3.28;1.52;;;;;;;6.03;53.48;95115.75;5045304;28;20136;-84
2021/05/26 04:00:44;;;;;;;1.08;0.80;;;;;;;6.18;56.55;95113.28;5030752;28;20085;-84
2021/05/26 04:03:10;;;;;;;2.10;0.95;;;;;;;6.50;57.37;95111.72;5048938;28;20132;-84
2021/05/26 04:05:35;;;;;;;0.85;0.60;;;;;;;6.70;56.29;95116.69;5029634;28;20497;-85
2021/05/26 04:08:01;;;;;;;0.68;0.63;;;;;;;6.79;56.83;95109.56;5050472;28;20714;-84
2021/05/26 04:10:26;;;;;;;1.98;0.85;;;;;;;6.86;54.69;95106.09;5066286;28;20116;-84
2021/05/26 04:12:51;;;;;;;1.88;1.00;;;;;;;6.99;55.14;95097.63;5050026;28;20509;-84
2021/05/26 04:15:17;;;;;;;2.85;2.35;;;;;;;6.94;55.33;95092.00;5049081;28;20167;-84
2021/05/26 04:17:42;;;;;;;1.45;0.90;;;;;;;7.05;55.33;95097.94;5033971;28;20158;-84
2021/05/26 04:20:08;;;;;;;1.92;1.10;;;;;;;6.53;53.20;95094.69;5066454;28;20139;-84
2021/05/26 04:22:34;;;;;;;4.55;1.33;;;;;;;6.46;53.08;95095.31;5050970;28;20665;-84
2021/05/26 04:25:00;;;;;;;4.75;1.88;;;;;;;6.23;56.50;95092.50;5050528;28;20077;-84
2021/05/26 04:27:25;;;;;;;4.88;1.20;;;;;;;6.14;56.14;95094.31;5052046;28;20729;-84
2021/05/26 04:29:51;;;;;;;1.10;1.00;;;;;;;6.78;54.09;95098.16;5016422;28;20640;-84
2021/05/26 04:32:16;;;;;;;1.63;1.13;;;;;;;5.21;56.00;95096.81;5048675;28;20172;-84
2021/05/26 04:34:42;;;;;;;1.13;1.02;;;;;;;5.83;55.20;95094.91;5048365;28;20097;-84
2021/05/26 04:37:07;;;;;;;1.60;1.00;;;;;;;3.97;59.80;95097.47;5065461;28;20088;-84
2021/05/26 04:39:32;;;;;;;1.35;1.17;;;;;;;5.06;57.72;95085.97;5047922;28;20155;-84
2021/05/26 04:41:58;;;;;;;1.15;1.10;;;;;;;4.81;58.65;95084.00;5049149;28;20519;-84
2021/05/26 04:44:23;;;;;;;0.82;0.80;;;;;;;5.69;58.85;95083.13;5051554;28;20610;-84
2021/05/26 04:46:49;;;;;;;1.83;0.80;;;;;;;6.03;56.81;95086.69;5049765;28;20101;-84
2021/05/26 04:49:14;;;;;;;1.10;1.00;;;;;;;5.88;55.56;95082.03;5050647;28;20089;-84
2021/05/26 04:51:40;;;;;;;3.00;1.25;;;;;;;5.39;56.99;95091.44;5035084;28;20110;-84
2021/05/26 04:54:05;;;;;;;2.10;0.73;;;;;;;5.42;58.04;95085.84;5054543;28;20109;-84
2021/05/26 04:56:31;;;;;;;1.27;0.68;;;;;;;4.50;57.68;95086.25;5054903;28;20134;-84
2021/05/26 04:58:56;;;;;;;0.82;0.60;;;;;;;5.13;57.40;95087.00;5054842;28;20105;-84
2021/05/26 05:01:22;;;;;;;7.53;0.70;;;;;;;5.32;58.04;95088.63;5055486;28;20153;-84
2021/05/26 05:03:47;;;;;;;0.70;0.70;;;;;;;4.09;57.95;95087.56;5051475;28;20472;-84
2021/05/26 05:06:13;;;;;;;4.25;3.42;;;;;;;4.35;58.98;95089.41;5032976;28;20167;-84
2021/05/26 05:08:38;;;;;;;2.80;2.15;;;;;;;4.27;59.84;95079.66;5049759;28;20543;-84
2021/05/26 05:11:04;;;;;;;9.73;6.95;;;;;;;5.18;55.16;95078.63;5052203;28;20109;-84
2021/05/26 05:13:30;;;;;;;6.70;3.38;;;;;;;4.78;57.33;95073.78;5053981;28;20073;-84
2021/05/26 05:15:55;;;;;;;13.25;9.00;;;;;;;4.86;59.73;95072.97;5054003;28;20081;-84
2021/05/26 05:18:21;;;;;;;0.85;0.75;;;;;;;5.48;57.48;95066.72;5053118;28;20171;-84
2021/05/26 05:20:46;;;;;;;3.40;2.80;;;;;;;5.83;54.49;95064.03;5053615;28;20077;-84
2021/05/26 05:23:12;;;;;;;5.80;3.15;;;;;;;6.12;54.97;95059.25;5048161;28;20117;-84
2021/05/26 05:25:37;;;;;;;2.08;1.88;;;;;;;6.19;54.32;95057.63;5044987;28;20089;-84
2021/05/26 05:28:05;;;;;;;2.45;1.90;;;;;;;5.91;55.06;95044.72;5048806;28;20085;-84
2021/05/26 05:30:30;;;;;;;1.60;1.25;;;;;;;6.22;54.55;95067.03;5049296;28;20101;-84
2021/05/26 05:32:56;;;;;;;1.45;1.05;;;;;;;6.03;52.72;95054.97;5037718;28;20100;-84
2021/05/26 05:35:21;;;;;;;1.15;0.90;;;;;;;6.15;53.82;95058.94;5052732;28;20105;-84
2021/05/26 05:37:46;;;;;;;0.75;0.57;;;;;;;5.08;54.30;95062.91;5054709;28;20104;-84
2021/05/26 05:40:12;;;;;;;2.10;0.90;;;;;;;5.19;56.00;95057.38;5053602;28;20474;-84
2021/05/26 05:42:38;;;;;;;1.10;0.63;;;;;;;4.97;56.35;95048.16;5049432;28;20148;-84
2021/05/26 05:45:04;;;;;;;0.40;0.40;;;;;;;4.54;59.13;95058.59;5029947;28;20579;-83
2021/05/26 05:47:29;;;;;;;0.85;0.68;;;;;;;4.58;59.68;95050.22;5035335;28;20101;-84
2021/05/26 05:49:55;;;;;;;0.60;0.52;;;;;;;5.18;57.34;95045.16;5035400;28;20171;-84
2021/05/26 05:52:20;;;;;;;0.75;0.50;;;;;;;4.99;55.83;95053.28;5052394;28;20120;-84
2021/05/26 05:54:46;;;;;;;0.70;0.60;;;;;;;4.94;58.88;95048.47;5051719;28;20166;-84
2021/05/26 05:57:12;;;;;;;0.98;0.70;;;;;;;5.38;57.88;95044.91;5067028;28;20522;-84
2021/05/26 05:59:37;;;;;;;0.82;0.80;;;;;;;5.34;57.28;95041.75;5055807;28;20109;-84
2021/05/26 06:02:02;;;;;;;5.70;2.72;;;;;;;5.68;55.48;95034.75;5051434;28;20105;-83
2021/05/26 06:04:28;;;;;;;33.10;18.33;;;;;;;5.19;58.70;95040.69;5033541;28;20183;-84
2021/05/26 06:06:53;;;;;;;20.13;17.17;;;;;;;3.91;61.60;95040.16;5029409;28;20172;-84
2021/05/26 06:09:20;;;;;;;20.42;15.02;;;;;;;5.34;55.62;95039.13;5049205;28;20156;-84
2021/05/26 06:11:47;;;;;;;45.35;32.95;;;;;;;5.20;58.57;95043.19;5050993;28;20146;-84
2021/05/26 06:14:13;;;;;;;24.83;20.25;;;;;;;3.99;58.99;95037.59;5031783;28;20466;-84
2021/05/26 06:16:39;;;;;;;28.65;18.92;;;;;;;5.31;57.74;95034.16;5051966;28;20123;-84
2021/05/26 06:19:05;;;;;;;6.93;5.30;;;;;;;4.65;58.75;95031.97;5056777;28;20105;-83
2021/05/26 06:21:32;;;;;;;1.27;1.17;;;;;;;4.35;59.02;95038.53;5049042;28;20079;-83
2021/05/26 06:23:57;;;;;;;3.22;1.73;;;;;;;4.70;57.61;95032.34;5052111;28;20165;-83
2021/05/26 06:26:23;;;;;;;1.40;1.30;;;;;;;5.17;57.43;95045.31;5055924;28;20123;-84
2021/05/26 06:28:49;;;;;;;0.93;0.47;;;;;;;4.95;58.14;95044.84;5054488;28;20121;-84
2021/05/26 06:31:17;;;;;;;9.13;6.28;;;;;;;4.59;59.54;95035.22;5039855;28;20113;-84
2021/05/26 06:33:43;;;;;;;1.55;1.45;;;;;;;5.30;57.93;95037.78;5037867;28;20196;-84
2021/05/26 06:36:11;;;;;;;2.50;0.55;;;;;;;5.05;57.70;95044.72;5072790;28;20544;-84
2021/05/26 06:38:37;;;;;;;1.35;0.60;;;;;;;5.14;58.41;95043.81;5022256;28;20101;-84
2021/05/26 06:41:03;;;;;;;0.70;0.70;;;;;;;5.15;57.63;95040.19;5036706;28;20140;-84
2021/05/26 06:43:28;;;;;;;1.13;0.80;;;;;;;4.87;58.02;95036.88;5053604;28;20102;-84
2021/05/26 06:45:53;;;;;;;1.67;1.45;;;;;;;5.62;58.77;95040.69;5036258;28;20147;-84
2021/05/26 06:48:19;;;;;;;0.82;0.35;;;;;;;5.38;58.54;95034.34;5048843;28;20124;-84
2021/05/26 06:50:44;;;;;;;1.92;0.95;;;;;;;4.55;60.18;95040.00;5049354;28;20628;-84
2021/05/26 06:53:10;;;;;;;1.35;0.77;;;;;;;5.21;59.81;95036.09;5036466;28;20573;-84
2021/05/26 06:55:35;;;;;;;1.13;0.60;;;;;;;4.47;57.56;95037.31;5069075;28;20570;-84
2021/05/26 06:58:01;;;;;;;0.50;0.50;;;;;;;4.84;60.37;95033.56;5067302;28;20109;-84
2021/05/26 07:00:27;;;;;;;0.80;0.60;;;;;;;4.91;58.43;95033.78;5049093;28;20082;-84
2021/05/26 07:02:53;;;;;;;1.20;0.68;;;;;;;4.98;58.05;95031.34;5068920;28;20101;-84
2021/05/26 07:05:18;;;;;;;3.08;0.60;;;;;;;5.58;58.06;95023.53;5053860;28;20096;-84
2021/05/26 07:07:44;;;;;;;0.40;0.40;;;;;;;5.63;57.87;95021.22;5052257;28;20101;-84
2021/05/26 07:10:10;;;;;;;1.48;0.70;;;;;;;5.72;56.30;95022.88;5053314;28;20566;-84
2021/05/26 07:12:36;;;;;;;0.70;0.57;;;;;;;5.67;55.84;95030.47;5052572;28;20098;-84
2021/05/26 07:15:01;;;;;;;3.08;2.25;;;;;;;5.91;57.09;95023.56;5050763;28;20109;-84
2021/05/26 07:17:26;;;;;;;1.73;0.82;;;;;;;5.11;59.04;95030.94;5063800;28;20525;-84
2021/05/26 07:19:52;;;;;;;3.20;1.38;;;;;;;3.13;62.40;95032.53;5051622;28;20082;-84
2021/05/26 07:22:17;;;;;;;1.08;1.00;;;;;;;4.06;61.59;95028.06;5049466;28;20504;-84
2021/05/26 07:24:43;;;;;;;3.03;2.38;;;;;;;4.58;59.68;95025.66;5040557;28;20147;-86
2021/05/26 07:27:08;;;;;;;0.65;0.65;;;;;;;4.95;58.16;95031.66;5053122;28;20125;-84
2021/05/26 07:29:34;;;;;;;0.35;0.35;;;;;;;4.69;59.32;95024.56;5043483;28;20132;-85
2021/05/26 07:31:59;;;;;;;5.88;3.45;;;;;;;3.94;60.77;95035.41;5025048;28;20109;-84
2021/05/26 07:34:25;;;;;;;1.35;1.25;;;;;;;4.79;60.39;95021.81;5042807;28;20190;-84
2021/05/26 07:36:52;;;;;;;25.13;15.93;;;;;;;5.11;58.55;95015.13;5041702;28;20594;-84
2021/05/26 07:39:19;;;;;;;3.45;3.10;;;;;;;5.31;59.48;95007.75;5028752;28;20125;-84
2021/05/26 07:41:44;;;;;;;3.05;1.60;;;;;;;4.87;57.92;95005.22;5054089;28;20078;-84
2021/05/26 07:44:10;;;;;;;1.50;1.40;;;;;;;5.54;58.50;95014.28;5050074;28;20082;-84
2021/05/26 07:46:35;;;;;;;1.98;1.50;;;;;;;5.61;58.99;95017.91;5044685;28;20105;-84
2021/05/26 07:49:00;;;;;;;4.65;2.60;;;;;;;5.62;56.38;95019.56;5050422;28;20258;-85
2021/05/26 07:51:33;;;;;;;4.05;2.40;;;;;;;5.83;57.99;95007.72;5045217;28;20132;-85
2021/05/26 07:54:00;;;;;;;3.65;2.83;;;;;;;5.57;57.78;95011.28;5034735;28;20113;-83
2021/05/26 07:56:27;;;;;;;1.92;1.73;;;;;;;6.07;55.97;95016.66;5047088;28;20085;-84
2021/05/26 07:58:53;;;;;;;1.90;1.17;;;;;;;5.25;59.78;95013.69;5048230;28;20097;-83
2021/05/26 08:01:18;;;;;;;1.30;1.20;;;;;;;5.77;59.09;95011.00;5043549;28;20121;-84
2021/05/26 08:03:43;;;;;;;2.25;2.05;;;;;;;5.16;58.39;95018.09;5047484;28;20110;-83
2021/05/26 08:06:10;;;;;;;0.93;0.82;;;;;;;5.05;61.55;95018.34;5046583;28;20109;-85
2021/05/26 08:08:36;;;;;;;1.27;1.20;;;;;;;5.29;57.46;95011.53;5027502;28;20084;-85
2021/05/26 08:11:01;;;;;;;1.08;0.77;;;;;;;4.57;60.04;95018.75;5045998;28;20468;-85
2021/05/26 08:13:27;;;;;;;1.52;1.42;;;;;;;5.18;61.89;95010.88;5043750;28;20085;-85
2021/05/26 08:15:52;;;;;;;8.45;4.03;;;;;;;6.08;59.44;95010.38;5044805;28;20095;-86
2021/05/26 08:18:21;;;;;;;2.00;0.80;;;;;;;4.84;59.19;95023.00;5041529;28;20116;-86
2021/05/26 08:20:47;;;;;;;1.25;1.13;;;;;;;5.69;60.77;95017.09;5018249;28;20124;-85
2021/05/26 08:23:14;;;;;;;7.32;5.70;;;;;;;6.28;57.07;95005.59;5055230;28;20154;-85
2021/05/26 08:25:39;;;;;;;4.40;3.03;;;;;;;5.72;58.49;95007.03;5042754;28;20088;-85
2021/05/26 08:28:05;;;;;;;0.35;0.32;;;;;;;6.57;56.06;95003.44;5026220;28;20469;-85
2021/05/26 08:30:30;;;;;;;0.50;0.50;;;;;;;6.96;56.78;95000.06;5043065;28;20155;-85
2021/05/26 08:32:56;;;;;;;0.82;0.73;;;;;;;7.04;55.05;94990.44;5041741;28;20102;-86
2021/05/26 08:35:21;;;;;;;6.35;4.38;;;;;;;6.70;56.68;94985.22;5058835;28;20193;-85
2021/05/26 08:37:46;;;;;;;1.45;0.35;;;;;;;6.67;56.74;94990.88;5044783;28;20158;-85
2021/05/26 08:40:12;;;;;;;0.50;0.40;;;;;;;7.33;56.18;94986.31;5043053;28;20097;-86
2021/05/26 08:42:37;;;;;;;0.45;0.45;;;;;;;7.17;55.38;94984.59;5044041;28;20343;-86
2021/05/26 08:45:04;;;;;;;0.57;0.43;;;;;;;7.12;55.48;94983.28;5044560;28;20644;-86
2021/05/26 08:47:30;;;;;;;0.98;0.68;;;;;;;7.34;54.84;94982.69;5048270;28;20109;-86
2021/05/26 08:49:55;;;;;;;7.95;5.80;;;;;;;5.96;56.30;94989.56;5041796;28;20651;-86
2021/05/26 08:52:21;;;;;;;1.25;0.68;;;;;;;5.00;58.48;94996.88;5025767;28;20521;-86
2021/05/26 08:54:47;;;;;;;0.40;0.40;;;;;;;5.29;60.23;94990.41;5042562;28;20140;-86
2021/05/26 08:57:15;;;;;;;1.85;1.58;;;;;;;6.50;56.45;94995.38;5042272;28;20139;-86
2021/05/26 08:59:41;;;;;;;0.47;0.47;;;;;;;5.51;58.05;94986.34;5042576;28;20524;-86
2021/05/26 09:02:10;;;;;;;0.52;0.40;;;;;;;7.28;55.08;94984.22;5041954;28;20587;-85
2021/05/26 09:04:36;;;;;;;0.45;0.43;;;;;;;6.93;55.41;94995.09;5044097;28;20691;-86
2021/05/26 09:07:32;;;;;;;0.30;0.30;;;;;;;6.62;57.01;94987.88;5024159;28;20343;-85
2021/05/26 09:09:59;;;;;;;0.73;0.40;;;;;;;7.07;55.72;94979.50;5042781;28;20117;-85
2021/05/26 09:12:31;;;;;;;2.70;0.80;;;;;;;6.94;55.59;94986.16;5025313;28;20180;-84
2021/05/26 09:15:14;;;;;;;0.43;0.43;;;;;;;6.49;57.33;94985.75;5041131;28;20109;-85
2021/05/26 09:17:41;;;;;;;0.73;0.50;;;;;;;5.30;58.71;94990.25;5040695;28;20108;-85
2021/05/26 09:20:23;;;;;;;5.28;3.38;;;;;;;5.60;57.64;94988.03;5038851;28;20073;-85
2021/05/26 09:23:04;;;;;;;1.08;0.70;;;;;;;6.18;58.49;94989.91;5042785;28;20348;-85
2021/05/26 09:25:31;;;;;;;2.47;2.10;;;;;;;4.79;60.22;94977.00;5041803;28;20184;-85
2021/05/26 09:28:34;;;;;;;0.90;0.60;;;;;;;6.37;58.05;94979.97;5043429;28;20415;-85
2021/05/26 09:31:07;;;;;;;2.97;2.30;;;;;;;5.42;59.20;94982.88;4959462;28;20115;-86
2021/05/26 09:33:40;;;;;;;0.73;0.40;;;;;;;7.02;54.58;94967.63;5017234;28;20093;-86
2021/05/26 09:36:13;;;;;;;0.60;0.60;;;;;;;7.73;52.49;94965.09;5042133;28;20081;-86
2021/05/26 09:38:42;;;;;;;2.70;2.50;;;;;;;8.23;54.94;94964.75;5041823;28;20183;-86
2021/05/26 09:41:31;;;;;;;4.13;0.85;;;;;;;8.18;53.33;94958.16;5039639;28;20127;-86
2021/05/26 09:44:03;;;;;;;1.20;1.10;;;;;;;8.57;50.69;94961.59;5051520;28;20119;-85
2021/05/26 09:46:33;;;;;;;1.10;1.10;;;;;;;8.42;51.43;94960.75;5047797;28;20641;-86
2021/05/26 09:49:18;;;;;;;5.10;3.70;;;;;;;8.66;53.08;94956.19;5043790;28;20436;-86
2021/05/26 09:51:43;;;;;;;1.50;1.40;;;;;;;7.88;51.99;94960.69;5041582;28;20504;-86
2021/05/26 09:54:16;;;;;;;0.93;0.93;;;;;;;6.76;55.25;94966.03;5041997;28;20429;-85
2021/05/26 09:56:42;;;;;;;4.60;2.85;;;;;;;5.74;61.26;94965.44;5022301;28;20084;-86
2021/05/26 09:59:08;;;;;;;1.40;1.30;;;;;;;8.28;54.18;94962.38;5043469;28;20537;-86
2021/05/26 10:01:34;;;;;;;5.65;3.88;;;;;;;7.75;54.86;94953.31;5044883;28;20085;-86
2021/05/26 10:04:00;;;;;;;0.65;0.50;;;;;;;7.60;54.22;94960.34;5058218;28;20085;-85
2021/05/26 10:06:27;;;;;;;0.77;0.77;;;;;;;7.49;54.19;94957.13;5040613;28;20418;-85
2021/05/26 10:08:54;;;;;;;0.80;0.57;;;;;;;5.35;60.71;94955.47;5025016;28;20132;-85
2021/05/26 10:11:20;;;;;;;1.25;1.15;;;;;;;6.19;59.18;94962.47;5027076;28;20131;-84
2021/05/26 10:13:46;;;;;;;0.60;0.60;;;;;;;7.60;54.70;94952.41;5041561;28;20427;-84
2021/05/26 10:16:15;;;;;;;1.10;0.98;;;;;;;6.13;57.54;94953.38;5025920;28;20660;-85
2021/05/26 10:18:41;;;;;;;3.17;0.93;;;;;;;7.33;56.05;94943.97;5027578;28;20105;-84
2021/05/26 10:21:06;;;;;;;0.82;0.82;;;;;;;7.12;55.04;94948.03;5024826;28;20082;-85
2021/05/26 10:23:32;;;;;;;2.05;0.85;;;;;;;7.50;55.18;94940.22;5039475;28;20643;-85
2021/05/26 10:25:58;;;;;;;0.75;0.75;;;;;;;7.97;53.57;94944.72;5040875;28;20120;-86
2021/05/26 10:28:30;;;;;;;1.15;0.77;;;;;;;8.10;55.13;94942.31;5044705;28;20117;-85
2021/05/26 10:30:56;;;;;;;0.90;0.90;;;;;;;7.63;54.76;94939.66;5039803;28;20983;-85
2021/05/26 10:33:39;;;;;;;1.15;0.93;;;;;;;7.62;55.92;94940.63;5042184;28;20435;-86
2021/05/26 10:36:08;;;;;;;0.75;0.75;;;;;;;7.61;54.32;94938.16;5025160;28;20160;-86
2021/05/26 10:38:59;;;;;;;1.27;0.60;;;;;;;7.44;56.03;94935.63;5040439;28;20136;-85
2021/05/26 10:41:45;;;;;;;2.08;0.77;;;;;;;8.38;55.23;94933.78;5035682;28;20081;-85
2021/05/26 10:44:10;;;;;;;0.68;0.68;;;;;;;8.67;53.45;94941.94;5027109;28;20093;-86
2021/05/26 10:46:36;;;;;;;0.52;0.52;;;;;;;8.33;54.81;94933.47;5017574;28;20553;-85
2021/05/26 10:49:03;;;;;;;1.48;0.75;;;;;;;7.22;56.30;94934.59;5041458;28;20369;-86
2021/05/26 10:51:54;;;;;;;0.55;0.55;;;;;;;8.26;54.73;94933.38;5022739;28;20105;-85
2021/05/26 10:54:41;;;;;;;0.75;0.75;;;;;;;9.23;51.63;94930.03;5041732;28;21230;-85
2021/05/26 10:57:07;;;;;;;1.60;1.50;;;;;;;9.78;52.17;94931.41;5041746;28;20077;-85
2021/05/26 10:59:32;;;;;;;2.13;1.30;;;;;;;8.03;54.77;94930.78;5040269;28;20740;-85
2021/05/26 11:02:10;;;;;;;11.15;7.78;;;;;;;8.64;53.21;94927.19;5041864;28;20458;-85
2021/05/26 11:04:40;;;;;;;1.40;1.27;;;;;;;8.68;55.17;94930.31;5045992;28;20465;-85
2021/05/26 11:07:18;;;;;;;7.60;3.38;;;;;;;8.40;53.76;94926.44;5040720;28;20807;-85
2021/05/26 11:10:06;;;;;;;5.63;3.83;;;;;;;8.59;52.73;94934.03;5038030;28;20183;-85
2021/05/26 11:12:57;;;;;;;6.50;3.65;;;;;;;8.70;53.55;94928.28;5007665;28;20090;-85
2021/05/26 11:15:57;;;;;;;1.05;0.95;;;;;;;8.55;53.62;94928.28;5043569;28;20530;-85
2021/05/26 11:20:50;;;;;;;2.00;1.80;;;;;;;9.02;53.68;94917.50;5059285;28;20085;-85
2021/05/26 11:23:16;;;;;;;2.72;2.42;;;;;;;9.24;52.39;94925.53;5045831;28;20132;-85
2021/05/26 11:25:54;;;;;;;1.63;1.08;;;;;;;9.31;52.37;94919.28;5022728;28;20139;-86
2021/05/26 11:28:34;;;;;;;1.73;1.08;;;;;;;9.61;53.29;94915.72;5027828;28;20795;-86
2021/05/26 11:31:03;;;;;;;1.73;1.63;;;;;;;8.17;53.76;94919.34;5041586;28;20545;-86
2021/05/26 11:33:28;;;;;;;0.40;0.40;;;;;;;10.08;51.50;94910.84;5031455;28;20109;-86
2021/05/26 11:35:58;;;;;;;0.60;0.60;;;;;;;10.69;49.60;94910.44;5044992;28;20151;-86
2021/05/26 11:38:25;;;;;;;0.50;0.50;;;;;;;10.88;48.48;94907.06;5039046;28;20102;-86
2021/05/26 11:40:50;;;;;;;1.25;1.15;;;;;;;10.14;50.33;94908.44;5037815;28;20558;-86
2021/05/26 11:43:18;;;;;;;1.08;1.00;;;;;;;10.41;50.12;94908.63;5045095;28;20109;-85
2021/05/26 11:45:43;;;;;;;1.02;0.93;;;;;;;9.55;50.75;94909.31;5064213;28;20576;-83
2021/05/26 11:48:09;;;;;;;5.32;4.05;;;;;;;8.94;53.37;94910.41;5029372;28;20081;-86